Pagina principale
METAR-TAF:

METAR-TAF

Aeroporti :

Wonderboom Airport

Pretoria, Sudafrica

latitudine: 25-39S, longitudine: 028-13E, altezza: 1248 m

Osservazione

Il bollettino è stato emesso 5 ore e 23 minuti fa, alle 07:00 UTC
Vento 1 kt da est/nord-est
Temperature 15°C
Umidità 72%
Pressione 1029 hPa
Visibilità 10 km o più
nessuna nube inferiore a 1500 m e nessun cumulonembo

METAR: FAWB 270700Z 06001KT CAVOK 15/10 Q1029

Ora: 14:23 (12:23 UTC)

Previsione

Il bollettino è stato emesso 3 ore e 23 minuti fa, alle 09:00 UTC
Previsione valida dal 27 alle 10 UTC al 27 alle 18 UTC
Vento 8 kt da nord-est
Visibilità 10 km o più
nessuna nube inferiore a 1500 m e nessun cumulonembo
Evoluzione graduale
dal 27 alle 14 UTC al 27 alle 16 UTC
Vento 3 kt da direzioni variabili

TAF: FAWB 270900Z 2710/2718 04008KT CAVOK TX20/2713Z TN10/2718Z BECMG 2714/2716 VRB03KT

Osservazioni e previsioni meteorologiche di più di 4000 aeroporti (messaggi METAR e TAF).

Le stazioni disponibili sono rappresentate dai dischi gialli e rossi sulla carta.

Puntare il mouse per vedere il nome della stazione.

Clicca sopra per visualizzare le osservazioni e previsioni meteorologiche.

Per cambiare la mappa : fare clic sui pulsanti verdi con una croce nera per ingrandire, il pulsante verde con un trattino per diminuire, o sulla freccia verde per le mappe adiacenti.


METAR-TAF: